sensor_id;sensor_type;location;lat;lon;timestamp;P1;durP1;ratioP1;P2;durP2;ratioP2
19735;SDS011;32064;49.310;8.646;2023-04-15T00:00:08;7.90;;;1.80;;
19735;SDS011;32064;49.310;8.646;2023-04-15T00:02:34;3.23;;;2.07;;
19735;SDS011;32064;49.310;8.646;2023-04-15T00:05:00;3.90;;;2.40;;
19735;SDS011;32064;49.310;8.646;2023-04-15T00:07:25;6.57;;;2.03;;
19735;SDS011;32064;49.310;8.646;2023-04-15T00:09:50;3.27;;;2.23;;
19735;SDS011;32064;49.310;8.646;2023-04-15T00:12:19;4.07;;;2.57;;
19735;SDS011;32064;49.310;8.646;2023-04-15T00:14:45;4.97;;;2.30;;
19735;SDS011;32064;49.310;8.646;2023-04-15T00:17:11;2.67;;;1.63;;
19735;SDS011;32064;49.310;8.646;2023-04-15T00:19:37;2.63;;;1.77;;
19735;SDS011;32064;49.310;8.646;2023-04-15T00:22:02;2.23;;;1.60;;
19735;SDS011;32064;49.310;8.646;2023-04-15T00:24:28;2.13;;;1.40;;
19735;SDS011;32064;49.310;8.646;2023-04-15T00:26:54;2.10;;;1.50;;
19735;SDS011;32064;49.310;8.646;2023-04-15T00:29:20;3.37;;;1.57;;
19735;SDS011;32064;49.310;8.646;2023-04-15T00:31:45;3.47;;;1.50;;
19735;SDS011;32064;49.310;8.646;2023-04-15T00:34:11;3.70;;;1.50;;
19735;SDS011;32064;49.310;8.646;2023-04-15T00:36:36;4.43;;;1.90;;
19735;SDS011;32064;49.310;8.646;2023-04-15T00:39:02;2.37;;;1.50;;
19735;SDS011;32064;49.310;8.646;2023-04-15T00:41:27;6.23;;;1.37;;
19735;SDS011;32064;49.310;8.646;2023-04-15T00:43:53;3.47;;;2.13;;
19735;SDS011;32064;49.310;8.646;2023-04-15T00:46:18;2.50;;;1.60;;
19735;SDS011;32064;49.310;8.646;2023-04-15T00:48:45;2.63;;;1.50;;
19735;SDS011;32064;49.310;8.646;2023-04-15T00:51:11;2.30;;;1.73;;
19735;SDS011;32064;49.310;8.646;2023-04-15T00:53:37;2.93;;;1.80;;
19735;SDS011;32064;49.310;8.646;2023-04-15T00:56:05;2.13;;;1.40;;
19735;SDS011;32064;49.310;8.646;2023-04-15T00:58:31;2.10;;;1.47;;
19735;SDS011;32064;49.310;8.646;2023-04-15T01:00:56;2.40;;;1.33;;
19735;SDS011;32064;49.310;8.646;2023-04-15T01:03:23;2.87;;;1.40;;
19735;SDS011;32064;49.310;8.646;2023-04-15T01:05:48;2.63;;;1.67;;
19735;SDS011;32064;49.310;8.646;2023-04-15T01:08:14;4.80;;;1.30;;
19735;SDS011;32064;49.310;8.646;2023-04-15T01:10:40;2.80;;;1.40;;
19735;SDS011;32064;49.310;8.646;2023-04-15T01:13:05;2.90;;;1.27;;
19735;SDS011;32064;49.310;8.646;2023-04-15T01:15:31;3.17;;;1.43;;
19735;SDS011;32064;49.310;8.646;2023-04-15T01:18:00;2.20;;;1.47;;
19735;SDS011;32064;49.310;8.646;2023-04-15T01:20:28;2.37;;;1.60;;
19735;SDS011;32064;49.310;8.646;2023-04-15T01:22:54;3.53;;;1.90;;
19735;SDS011;32064;49.310;8.646;2023-04-15T01:25:32;4.40;;;1.67;;
19735;SDS011;32064;49.310;8.646;2023-04-15T01:27:59;2.37;;;1.33;;
19735;SDS011;32064;49.310;8.646;2023-04-15T01:30:25;2.13;;;1.30;;
19735;SDS011;32064;49.310;8.646;2023-04-15T01:32:51;1.50;;;1.20;;
19735;SDS011;32064;49.310;8.646;2023-04-15T01:35:17;2.60;;;1.47;;
19735;SDS011;32064;49.310;8.646;2023-04-15T01:37:42;2.67;;;1.40;;
19735;SDS011;32064;49.310;8.646;2023-04-15T01:40:08;2.73;;;1.30;;
19735;SDS011;32064;49.310;8.646;2023-04-15T01:42:34;2.63;;;1.10;;
19735;SDS011;32064;49.310;8.646;2023-04-15T01:45:00;1.93;;;1.10;;
19735;SDS011;32064;49.310;8.646;2023-04-15T01:47:26;1.87;;;1.27;;
19735;SDS011;32064;49.310;8.646;2023-04-15T01:49:52;3.43;;;1.27;;
19735;SDS011;32064;49.310;8.646;2023-04-15T01:52:17;2.70;;;1.20;;
19735;SDS011;32064;49.310;8.646;2023-04-15T01:54:43;2.80;;;1.50;;
19735;SDS011;32064;49.310;8.646;2023-04-15T01:57:08;2.63;;;1.40;;
19735;SDS011;32064;49.310;8.646;2023-04-15T01:59:34;1.87;;;1.30;;
19735;SDS011;32064;49.310;8.646;2023-04-15T02:02:00;3.90;;;1.50;;
19735;SDS011;32064;49.310;8.646;2023-04-15T02:04:25;3.83;;;1.50;;
19735;SDS011;32064;49.310;8.646;2023-04-15T02:06:51;2.20;;;1.20;;
19735;SDS011;32064;49.310;8.646;2023-04-15T02:09:17;3.67;;;1.60;;
19735;SDS011;32064;49.310;8.646;2023-04-15T02:11:42;1.60;;;1.20;;
19735;SDS011;32064;49.310;8.646;2023-04-15T02:14:08;1.80;;;1.20;;
19735;SDS011;32064;49.310;8.646;2023-04-15T02:16:33;2.10;;;1.40;;
19735;SDS011;32064;49.310;8.646;2023-04-15T02:18:59;2.80;;;1.40;;
19735;SDS011;32064;49.310;8.646;2023-04-15T02:21:27;3.67;;;1.30;;
19735;SDS011;32064;49.310;8.646;2023-04-15T02:23:53;4.07;;;1.27;;
19735;SDS011;32064;49.310;8.646;2023-04-15T02:26:19;2.53;;;1.33;;
19735;SDS011;32064;49.310;8.646;2023-04-15T02:28:45;2.50;;;1.10;;
19735;SDS011;32064;49.310;8.646;2023-04-15T02:31:11;1.57;;;1.43;;
19735;SDS011;32064;49.310;8.646;2023-04-15T02:33:36;2.53;;;1.13;;
19735;SDS011;32064;49.310;8.646;2023-04-15T02:36:02;2.43;;;1.60;;
19735;SDS011;32064;49.310;8.646;2023-04-15T02:38:27;1.50;;;1.20;;
19735;SDS011;32064;49.310;8.646;2023-04-15T02:40:53;6.90;;;1.23;;
19735;SDS011;32064;49.310;8.646;2023-04-15T02:43:18;1.97;;;1.30;;
19735;SDS011;32064;49.310;8.646;2023-04-15T02:45:44;2.90;;;1.47;;
19735;SDS011;32064;49.310;8.646;2023-04-15T02:48:11;3.33;;;1.27;;
19735;SDS011;32064;49.310;8.646;2023-04-15T02:50:36;3.17;;;1.17;;
19735;SDS011;32064;49.310;8.646;2023-04-15T02:53:03;2.57;;;1.27;;
19735;SDS011;32064;49.310;8.646;2023-04-15T02:55:29;2.20;;;1.10;;
19735;SDS011;32064;49.310;8.646;2023-04-15T02:57:55;6.03;;;1.50;;
19735;SDS011;32064;49.310;8.646;2023-04-15T03:00:22;3.73;;;1.20;;
19735;SDS011;32064;49.310;8.646;2023-04-15T03:02:49;2.07;;;1.30;;
19735;SDS011;32064;49.310;8.646;2023-04-15T03:05:20;1.80;;;1.17;;
19735;SDS011;32064;49.310;8.646;2023-04-15T03:07:47;2.20;;;1.30;;
19735;SDS011;32064;49.310;8.646;2023-04-15T03:10:13;1.53;;;1.10;;
19735;SDS011;32064;49.310;8.646;2023-04-15T03:12:38;1.97;;;1.33;;
19735;SDS011;32064;49.310;8.646;2023-04-15T03:15:04;1.03;;;0.83;;
19735;SDS011;32064;49.310;8.646;2023-04-15T03:17:30;1.10;;;1.00;;
19735;SDS011;32064;49.310;8.646;2023-04-15T03:19:56;1.37;;;1.10;;
19735;SDS011;32064;49.310;8.646;2023-04-15T03:22:21;2.30;;;1.37;;
19735;SDS011;32064;49.310;8.646;2023-04-15T03:24:47;1.40;;;1.20;;
19735;SDS011;32064;49.310;8.646;2023-04-15T03:27:12;1.83;;;1.00;;
19735;SDS011;32064;49.310;8.646;2023-04-15T03:29:37;2.23;;;1.40;;
19735;SDS011;32064;49.310;8.646;2023-04-15T03:32:03;2.70;;;1.33;;
19735;SDS011;32064;49.310;8.646;2023-04-15T03:34:28;2.03;;;1.10;;
19735;SDS011;32064;49.310;8.646;2023-04-15T03:36:54;1.90;;;1.10;;
19735;SDS011;32064;49.310;8.646;2023-04-15T03:39:20;2.53;;;0.93;;
19735;SDS011;32064;49.310;8.646;2023-04-15T03:41:45;1.90;;;1.10;;
19735;SDS011;32064;49.310;8.646;2023-04-15T03:44:11;4.10;;;1.20;;
19735;SDS011;32064;49.310;8.646;2023-04-15T03:46:36;2.40;;;1.10;;
19735;SDS011;32064;49.310;8.646;2023-04-15T03:49:02;1.70;;;1.10;;
19735;SDS011;32064;49.310;8.646;2023-04-15T03:51:27;2.10;;;1.00;;
19735;SDS011;32064;49.310;8.646;2023-04-15T03:53:53;4.03;;;1.10;;
19735;SDS011;32064;49.310;8.646;2023-04-15T03:56:18;1.47;;;1.10;;
19735;SDS011;32064;49.310;8.646;2023-04-15T03:58:43;3.27;;;0.90;;
19735;SDS011;32064;49.310;8.646;2023-04-15T04:01:09;2.83;;;1.33;;
19735;SDS011;32064;49.310;8.646;2023-04-15T04:03:34;1.10;;;1.00;;
19735;SDS011;32064;49.310;8.646;2023-04-15T04:06:01;1.33;;;0.90;;
19735;SDS011;32064;49.310;8.646;2023-04-15T04:08:26;1.40;;;1.03;;
19735;SDS011;32064;49.310;8.646;2023-04-15T04:10:52;2.53;;;1.10;;
19735;SDS011;32064;49.310;8.646;2023-04-15T04:13:17;2.90;;;1.13;;
19735;SDS011;32064;49.310;8.646;2023-04-15T04:15:42;1.90;;;1.07;;
19735;SDS011;32064;49.310;8.646;2023-04-15T04:18:08;1.67;;;1.10;;
19735;SDS011;32064;49.310;8.646;2023-04-15T04:20:33;3.53;;;1.23;;
19735;SDS011;32064;49.310;8.646;2023-04-15T04:22:58;1.97;;;1.17;;
19735;SDS011;32064;49.310;8.646;2023-04-15T04:25:24;1.50;;;1.17;;
19735;SDS011;32064;49.310;8.646;2023-04-15T04:27:50;2.27;;;1.13;;
19735;SDS011;32064;49.310;8.646;2023-04-15T04:30:15;2.50;;;1.37;;
19735;SDS011;32064;49.310;8.646;2023-04-15T04:32:41;2.67;;;1.80;;
19735;SDS011;32064;49.310;8.646;2023-04-15T04:35:06;1.63;;;1.13;;
19735;SDS011;32064;49.310;8.646;2023-04-15T04:37:32;1.70;;;1.20;;
19735;SDS011;32064;49.310;8.646;2023-04-15T04:39:57;1.80;;;1.10;;
19735;SDS011;32064;49.310;8.646;2023-04-15T04:42:22;1.90;;;1.20;;
19735;SDS011;32064;49.310;8.646;2023-04-15T04:44:48;2.73;;;1.33;;
19735;SDS011;32064;49.310;8.646;2023-04-15T04:47:13;3.80;;;1.10;;
19735;SDS011;32064;49.310;8.646;2023-04-15T04:49:39;1.60;;;1.10;;
19735;SDS011;32064;49.310;8.646;2023-04-15T04:52:05;2.30;;;1.30;;
19735;SDS011;32064;49.310;8.646;2023-04-15T04:54:31;2.17;;;1.30;;
19735;SDS011;32064;49.310;8.646;2023-04-15T04:56:56;1.60;;;1.17;;
19735;SDS011;32064;49.310;8.646;2023-04-15T04:59:22;1.67;;;1.10;;
19735;SDS011;32064;49.310;8.646;2023-04-15T05:01:48;2.47;;;1.40;;
19735;SDS011;32064;49.310;8.646;2023-04-15T05:04:13;1.90;;;1.10;;
19735;SDS011;32064;49.310;8.646;2023-04-15T05:06:39;2.47;;;1.27;;
19735;SDS011;32064;49.310;8.646;2023-04-15T05:09:04;3.10;;;1.40;;
19735;SDS011;32064;49.310;8.646;2023-04-15T05:11:29;2.30;;;1.37;;
19735;SDS011;32064;49.310;8.646;2023-04-15T05:13:55;2.40;;;1.13;;
19735;SDS011;32064;49.310;8.646;2023-04-15T05:16:22;2.20;;;1.20;;
19735;SDS011;32064;49.310;8.646;2023-04-15T05:18:47;1.93;;;1.60;;
19735;SDS011;32064;49.310;8.646;2023-04-15T05:21:13;2.40;;;1.73;;
19735;SDS011;32064;49.310;8.646;2023-04-15T05:23:38;4.37;;;2.00;;
19735;SDS011;32064;49.310;8.646;2023-04-15T05:26:04;2.83;;;1.77;;
19735;SDS011;32064;49.310;8.646;2023-04-15T05:28:29;3.77;;;2.13;;
19735;SDS011;32064;49.310;8.646;2023-04-15T05:30:55;3.30;;;1.97;;
19735;SDS011;32064;49.310;8.646;2023-04-15T05:33:20;3.47;;;1.67;;
19735;SDS011;32064;49.310;8.646;2023-04-15T05:35:46;3.47;;;1.63;;
19735;SDS011;32064;49.310;8.646;2023-04-15T05:38:11;4.23;;;1.43;;
19735;SDS011;32064;49.310;8.646;2023-04-15T05:40:36;4.77;;;2.23;;
19735;SDS011;32064;49.310;8.646;2023-04-15T05:43:02;3.47;;;1.83;;
19735;SDS011;32064;49.310;8.646;2023-04-15T05:45:27;2.00;;;1.53;;
19735;SDS011;32064;49.310;8.646;2023-04-15T05:47:52;2.57;;;1.60;;
19735;SDS011;32064;49.310;8.646;2023-04-15T05:50:18;2.80;;;1.50;;
19735;SDS011;32064;49.310;8.646;2023-04-15T05:52:45;2.37;;;1.47;;
19735;SDS011;32064;49.310;8.646;2023-04-15T05:55:10;2.03;;;1.53;;
19735;SDS011;32064;49.310;8.646;2023-04-15T05:57:36;1.93;;;1.70;;
19735;SDS011;32064;49.310;8.646;2023-04-15T06:00:02;2.73;;;1.80;;
19735;SDS011;32064;49.310;8.646;2023-04-15T06:02:31;1.90;;;1.70;;
19735;SDS011;32064;49.310;8.646;2023-04-15T06:04:56;2.93;;;2.10;;
19735;SDS011;32064;49.310;8.646;2023-04-15T06:07:22;2.60;;;1.80;;
19735;SDS011;32064;49.310;8.646;2023-04-15T06:09:48;2.37;;;1.43;;
19735;SDS011;32064;49.310;8.646;2023-04-15T06:12:13;4.57;;;1.77;;
19735;SDS011;32064;49.310;8.646;2023-04-15T06:14:39;3.73;;;1.53;;
19735;SDS011;32064;49.310;8.646;2023-04-15T06:17:05;2.23;;;1.60;;
19735;SDS011;32064;49.310;8.646;2023-04-15T06:19:32;2.67;;;1.47;;
19735;SDS011;32064;49.310;8.646;2023-04-15T06:21:57;2.07;;;1.57;;
19735;SDS011;32064;49.310;8.646;2023-04-15T06:24:23;3.80;;;2.07;;
19735;SDS011;32064;49.310;8.646;2023-04-15T06:26:48;5.33;;;2.13;;
19735;SDS011;32064;49.310;8.646;2023-04-15T06:29:14;3.43;;;2.37;;
19735;SDS011;32064;49.310;8.646;2023-04-15T06:31:40;2.97;;;2.10;;
19735;SDS011;32064;49.310;8.646;2023-04-15T06:34:05;2.83;;;2.07;;
19735;SDS011;32064;49.310;8.646;2023-04-15T06:36:31;4.20;;;2.00;;
19735;SDS011;32064;49.310;8.646;2023-04-15T06:38:56;2.33;;;1.97;;
19735;SDS011;32064;49.310;8.646;2023-04-15T06:41:22;2.93;;;1.90;;
19735;SDS011;32064;49.310;8.646;2023-04-15T06:43:47;5.33;;;2.23;;
19735;SDS011;32064;49.310;8.646;2023-04-15T06:46:13;2.97;;;1.93;;
19735;SDS011;32064;49.310;8.646;2023-04-15T06:48:38;4.33;;;1.80;;
19735;SDS011;32064;49.310;8.646;2023-04-15T06:51:04;3.90;;;2.00;;
19735;SDS011;32064;49.310;8.646;2023-04-15T06:53:29;2.10;;;1.90;;
19735;SDS011;32064;49.310;8.646;2023-04-15T06:55:55;2.40;;;2.10;;
19735;SDS011;32064;49.310;8.646;2023-04-15T06:58:20;5.83;;;1.90;;
19735;SDS011;32064;49.310;8.646;2023-04-15T07:00:46;3.43;;;2.43;;
19735;SDS011;32064;49.310;8.646;2023-04-15T07:03:12;5.18;;;2.67;;
19735;SDS011;32064;49.310;8.646;2023-04-15T07:05:37;3.13;;;2.10;;
19735;SDS011;32064;49.310;8.646;2023-04-15T07:08:03;4.78;;;2.17;;
19735;SDS011;32064;49.310;8.646;2023-04-15T07:10:31;3.90;;;2.50;;
19735;SDS011;32064;49.310;8.646;2023-04-15T07:12:57;4.45;;;2.50;;
19735;SDS011;32064;49.310;8.646;2023-04-15T07:15:22;4.22;;;2.90;;
19735;SDS011;32064;49.310;8.646;2023-04-15T07:17:48;4.13;;;2.50;;
19735;SDS011;32064;49.310;8.646;2023-04-15T07:20:13;3.78;;;2.50;;
19735;SDS011;32064;49.310;8.646;2023-04-15T07:22:39;5.30;;;2.65;;
19735;SDS011;32064;49.310;8.646;2023-04-15T07:25:05;4.00;;;2.58;;
19735;SDS011;32064;49.310;8.646;2023-04-15T07:27:31;5.53;;;2.80;;
19735;SDS011;32064;49.310;8.646;2023-04-15T07:29:57;5.28;;;2.63;;
19735;SDS011;32064;49.310;8.646;2023-04-15T07:32:22;5.30;;;2.03;;
19735;SDS011;32064;49.310;8.646;2023-04-15T07:34:48;4.35;;;2.30;;
19735;SDS011;32064;49.310;8.646;2023-04-15T07:37:13;5.10;;;2.20;;
19735;SDS011;32064;49.310;8.646;2023-04-15T07:39:39;3.63;;;2.63;;
19735;SDS011;32064;49.310;8.646;2023-04-15T07:42:04;5.95;;;2.22;;
19735;SDS011;32064;49.310;8.646;2023-04-15T07:44:30;4.45;;;2.00;;
19735;SDS011;32064;49.310;8.646;2023-04-15T07:46:56;3.58;;;2.17;;
19735;SDS011;32064;49.310;8.646;2023-04-15T07:49:21;4.00;;;2.30;;
19735;SDS011;32064;49.310;8.646;2023-04-15T07:51:47;4.82;;;2.25;;
19735;SDS011;32064;49.310;8.646;2023-04-15T07:54:13;3.00;;;2.10;;
19735;SDS011;32064;49.310;8.646;2023-04-15T07:56:39;3.65;;;2.10;;
19735;SDS011;32064;49.310;8.646;2023-04-15T07:59:05;3.08;;;1.95;;
19735;SDS011;32064;49.310;8.646;2023-04-15T08:01:31;3.80;;;2.45;;
19735;SDS011;32064;49.310;8.646;2023-04-15T08:03:57;2.58;;;2.03;;
19735;SDS011;32064;49.310;8.646;2023-04-15T08:06:23;4.88;;;2.13;;
19735;SDS011;32064;49.310;8.646;2023-04-15T08:08:48;3.83;;;1.92;;
19735;SDS011;32064;49.310;8.646;2023-04-15T08:11:14;4.10;;;1.77;;
19735;SDS011;32064;49.310;8.646;2023-04-15T08:13:40;3.25;;;1.90;;
19735;SDS011;32064;49.310;8.646;2023-04-15T08:16:18;3.80;;;2.28;;
19735;SDS011;32064;49.310;8.646;2023-04-15T08:18:45;2.75;;;1.95;;
19735;SDS011;32064;49.310;8.646;2023-04-15T08:21:11;4.35;;;2.00;;
19735;SDS011;32064;49.310;8.646;2023-04-15T08:23:37;2.13;;;1.92;;
19735;SDS011;32064;49.310;8.646;2023-04-15T08:26:03;4.20;;;1.83;;
19735;SDS011;32064;49.310;8.646;2023-04-15T08:28:28;4.10;;;1.88;;
19735;SDS011;32064;49.310;8.646;2023-04-15T08:30:54;2.83;;;1.75;;
19735;SDS011;32064;49.310;8.646;2023-04-15T08:33:20;2.25;;;2.05;;
19735;SDS011;32064;49.310;8.646;2023-04-15T08:35:45;2.70;;;1.88;;
19735;SDS011;32064;49.310;8.646;2023-04-15T08:38:14;2.58;;;1.70;;
19735;SDS011;32064;49.310;8.646;2023-04-15T08:40:40;3.05;;;1.75;;
19735;SDS011;32064;49.310;8.646;2023-04-15T08:43:08;2.88;;;1.60;;
19735;SDS011;32064;49.310;8.646;2023-04-15T08:45:39;2.50;;;1.88;;
19735;SDS011;32064;49.310;8.646;2023-04-15T08:48:05;3.08;;;2.00;;
19735;SDS011;32064;49.310;8.646;2023-04-15T08:50:32;3.42;;;1.92;;
19735;SDS011;32064;49.310;8.646;2023-04-15T08:52:58;6.47;;;4.72;;
19735;SDS011;32064;49.310;8.646;2023-04-15T08:55:25;2.78;;;2.20;;
19735;SDS011;32064;49.310;8.646;2023-04-15T08:57:55;4.85;;;2.05;;
19735;SDS011;32064;49.310;8.646;2023-04-15T09:00:21;7.40;;;2.45;;
19735;SDS011;32064;49.310;8.646;2023-04-15T09:02:47;4.53;;;2.58;;
19735;SDS011;32064;49.310;8.646;2023-04-15T09:05:12;4.15;;;2.10;;
19735;SDS011;32064;49.310;8.646;2023-04-15T09:07:38;2.63;;;1.75;;
19735;SDS011;32064;49.310;8.646;2023-04-15T09:10:04;2.42;;;1.88;;
19735;SDS011;32064;49.310;8.646;2023-04-15T09:12:29;3.65;;;2.03;;
19735;SDS011;32064;49.310;8.646;2023-04-15T09:14:56;13.02;;;2.20;;
19735;SDS011;32064;49.310;8.646;2023-04-15T09:17:21;3.13;;;2.33;;
19735;SDS011;32064;49.310;8.646;2023-04-15T09:19:48;5.32;;;2.42;;
19735;SDS011;32064;49.310;8.646;2023-04-15T09:22:21;5.43;;;2.78;;
19735;SDS011;32064;49.310;8.646;2023-04-15T09:24:47;3.42;;;2.25;;
19735;SDS011;32064;49.310;8.646;2023-04-15T09:27:14;6.72;;;1.70;;
19735;SDS011;32064;49.310;8.646;2023-04-15T09:29:40;2.25;;;1.50;;
19735;SDS011;32064;49.310;8.646;2023-04-15T09:32:10;3.40;;;2.00;;
19735;SDS011;32064;49.310;8.646;2023-04-15T09:34:36;4.20;;;2.10;;
19735;SDS011;32064;49.310;8.646;2023-04-15T09:37:02;2.58;;;1.75;;
19735;SDS011;32064;49.310;8.646;2023-04-15T09:39:43;3.38;;;2.22;;
19735;SDS011;32064;49.310;8.646;2023-04-15T09:42:13;3.45;;;1.80;;
19735;SDS011;32064;49.310;8.646;2023-04-15T09:44:41;4.07;;;1.98;;
19735;SDS011;32064;49.310;8.646;2023-04-15T09:47:06;11.50;;;1.92;;
19735;SDS011;32064;49.310;8.646;2023-04-15T09:49:31;2.50;;;2.00;;
19735;SDS011;32064;49.310;8.646;2023-04-15T09:51:58;5.68;;;2.33;;
19735;SDS011;32064;49.310;8.646;2023-04-15T09:54:30;3.88;;;2.13;;
19735;SDS011;32064;49.310;8.646;2023-04-15T09:57:03;2.35;;;1.35;;
19735;SDS011;32064;49.310;8.646;2023-04-15T09:59:32;2.25;;;1.48;;
19735;SDS011;32064;49.310;8.646;2023-04-15T10:01:58;3.50;;;1.40;;
19735;SDS011;32064;49.310;8.646;2023-04-15T10:04:23;1.65;;;1.50;;
19735;SDS011;32064;49.310;8.646;2023-04-15T10:06:51;8.63;;;1.40;;
19735;SDS011;32064;49.310;8.646;2023-04-15T10:09:17;4.20;;;1.40;;
19735;SDS011;32064;49.310;8.646;2023-04-15T10:11:43;2.28;;;1.33;;
19735;SDS011;32064;49.310;8.646;2023-04-15T10:14:10;2.70;;;1.75;;
19735;SDS011;32064;49.310;8.646;2023-04-15T10:16:37;2.70;;;1.40;;
19735;SDS011;32064;49.310;8.646;2023-04-15T10:19:06;1.88;;;1.52;;
19735;SDS011;32064;49.310;8.646;2023-04-15T10:21:33;1.92;;;1.38;;
19735;SDS011;32064;49.310;8.646;2023-04-15T10:24:01;2.92;;;1.38;;
19735;SDS011;32064;49.310;8.646;2023-04-15T10:26:27;6.85;;;1.45;;
19735;SDS011;32064;49.310;8.646;2023-04-15T10:28:53;8.15;;;1.80;;
19735;SDS011;32064;49.310;8.646;2023-04-15T10:31:19;3.28;;;1.35;;
19735;SDS011;32064;49.310;8.646;2023-04-15T10:33:45;3.10;;;1.70;;
19735;SDS011;32064;49.310;8.646;2023-04-15T10:36:12;2.22;;;1.73;;
19735;SDS011;32064;49.310;8.646;2023-04-15T10:38:40;1.55;;;1.45;;
19735;SDS011;32064;49.310;8.646;2023-04-15T10:43:46;2.10;;;1.90;;
19735;SDS011;32064;49.310;8.646;2023-04-15T10:46:22;4.68;;;2.28;;
19735;SDS011;32064;49.310;8.646;2023-04-15T10:49:10;2.67;;;2.35;;
19735;SDS011;32064;49.310;8.646;2023-04-15T10:51:41;2.95;;;1.73;;
19735;SDS011;32064;49.310;8.646;2023-04-15T10:54:12;3.97;;;1.90;;
19735;SDS011;32064;49.310;8.646;2023-04-15T10:56:42;2.03;;;1.80;;
19735;SDS011;32064;49.310;8.646;2023-04-15T10:59:08;2.65;;;2.08;;
19735;SDS011;32064;49.310;8.646;2023-04-15T11:01:48;3.03;;;2.38;;
19735;SDS011;32064;49.310;8.646;2023-04-15T11:04:44;2.83;;;2.45;;
19735;SDS011;32064;49.310;8.646;2023-04-15T11:07:33;2.50;;;2.28;;
19735;SDS011;32064;49.310;8.646;2023-04-15T11:12:43;2.78;;;2.10;;
19735;SDS011;32064;49.310;8.646;2023-04-15T11:15:26;2.20;;;1.70;;
19735;SDS011;32064;49.310;8.646;2023-04-15T11:18:07;1.83;;;1.50;;
19735;SDS011;32064;49.310;8.646;2023-04-15T11:20:36;2.78;;;1.23;;
19735;SDS011;32064;49.310;8.646;2023-04-15T11:23:03;2.00;;;1.30;;
19735;SDS011;32064;49.310;8.646;2023-04-15T11:25:30;1.92;;;1.35;;
19735;SDS011;32064;49.310;8.646;2023-04-15T11:27:58;2.00;;;1.30;;
19735;SDS011;32064;49.310;8.646;2023-04-15T11:30:25;1.27;;;1.05;;
19735;SDS011;32064;49.310;8.646;2023-04-15T11:32:53;1.85;;;1.02;;
19735;SDS011;32064;49.310;8.646;2023-04-15T11:35:23;1.95;;;1.00;;
19735;SDS011;32064;49.310;8.646;2023-04-15T11:37:49;1.05;;;0.93;;
19735;SDS011;32064;49.310;8.646;2023-04-15T11:40:22;0.80;;;0.80;;
19735;SDS011;32064;49.310;8.646;2023-04-15T11:43:08;1.20;;;0.90;;
19735;SDS011;32064;49.310;8.646;2023-04-15T11:45:35;1.33;;;0.82;;
19735;SDS011;32064;49.310;8.646;2023-04-15T11:48:08;0.90;;;0.88;;
19735;SDS011;32064;49.310;8.646;2023-04-15T11:50:35;2.42;;;0.88;;
19735;SDS011;32064;49.310;8.646;2023-04-15T11:53:04;2.67;;;0.85;;
19735;SDS011;32064;49.310;8.646;2023-04-15T11:55:40;1.25;;;0.90;;
19735;SDS011;32064;49.310;8.646;2023-04-15T12:00:39;2.08;;;0.90;;
19735;SDS011;32064;49.310;8.646;2023-04-15T12:03:21;1.75;;;1.05;;
19735;SDS011;32064;49.310;8.646;2023-04-15T12:13:46;0.90;;;0.80;;
19735;SDS011;32064;49.310;8.646;2023-04-15T12:16:17;1.75;;;0.88;;
19735;SDS011;32064;49.310;8.646;2023-04-15T12:18:53;1.95;;;1.15;;
19735;SDS011;32064;49.310;8.646;2023-04-15T12:21:24;1.13;;;1.02;;
19735;SDS011;32064;49.310;8.646;2023-04-15T12:23:53;1.65;;;1.10;;
19735;SDS011;32064;49.310;8.646;2023-04-15T12:26:27;0.95;;;0.82;;
19735;SDS011;32064;49.310;8.646;2023-04-15T12:29:00;2.25;;;1.00;;
19735;SDS011;32064;49.310;8.646;2023-04-15T12:31:26;1.23;;;0.88;;
19735;SDS011;32064;49.310;8.646;2023-04-15T12:33:54;1.30;;;1.13;;
19735;SDS011;32064;49.310;8.646;2023-04-15T12:36:19;2.30;;;0.70;;
19735;SDS011;32064;49.310;8.646;2023-04-15T12:38:45;1.40;;;0.82;;
19735;SDS011;32064;49.310;8.646;2023-04-15T12:41:10;1.67;;;1.10;;
19735;SDS011;32064;49.310;8.646;2023-04-15T12:43:36;1.40;;;1.10;;
19735;SDS011;32064;49.310;8.646;2023-04-15T12:46:01;2.25;;;1.15;;
19735;SDS011;32064;49.310;8.646;2023-04-15T12:48:27;1.23;;;0.93;;
19735;SDS011;32064;49.310;8.646;2023-04-15T12:50:52;1.63;;;1.00;;
19735;SDS011;32064;49.310;8.646;2023-04-15T12:53:17;1.27;;;0.93;;
19735;SDS011;32064;49.310;8.646;2023-04-15T12:55:43;2.10;;;1.00;;
19735;SDS011;32064;49.310;8.646;2023-04-15T12:58:08;3.47;;;0.93;;
19735;SDS011;32064;49.310;8.646;2023-04-15T13:00:35;1.15;;;0.85;;
19735;SDS011;32064;49.310;8.646;2023-04-15T13:03:01;4.15;;;1.02;;
19735;SDS011;32064;49.310;8.646;2023-04-15T13:05:27;3.58;;;0.90;;
19735;SDS011;32064;49.310;8.646;2023-04-15T13:07:52;1.35;;;0.80;;
19735;SDS011;32064;49.310;8.646;2023-04-15T13:10:18;1.20;;;0.73;;
19735;SDS011;32064;49.310;8.646;2023-04-15T13:12:43;1.00;;;0.90;;
19735;SDS011;32064;49.310;8.646;2023-04-15T13:15:11;2.00;;;1.08;;
19735;SDS011;32064;49.310;8.646;2023-04-15T13:17:37;1.23;;;0.80;;
19735;SDS011;32064;49.310;8.646;2023-04-15T13:20:02;1.63;;;0.88;;
19735;SDS011;32064;49.310;8.646;2023-04-15T13:22:28;1.10;;;0.90;;
19735;SDS011;32064;49.310;8.646;2023-04-15T13:24:54;1.10;;;0.90;;
19735;SDS011;32064;49.310;8.646;2023-04-15T13:27:19;0.80;;;0.80;;
19735;SDS011;32064;49.310;8.646;2023-04-15T13:29:45;2.05;;;0.93;;
19735;SDS011;32064;49.310;8.646;2023-04-15T13:32:10;1.95;;;0.90;;
19735;SDS011;32064;49.310;8.646;2023-04-15T13:34:36;2.95;;;0.85;;
19735;SDS011;32064;49.310;8.646;2023-04-15T13:37:05;2.28;;;0.70;;
19735;SDS011;32064;49.310;8.646;2023-04-15T13:39:31;2.17;;;0.68;;
19735;SDS011;32064;49.310;8.646;2023-04-15T13:41:57;1.42;;;0.80;;
19735;SDS011;32064;49.310;8.646;2023-04-15T13:44:22;0.43;;;0.38;;
19735;SDS011;32064;49.310;8.646;2023-04-15T13:46:48;0.50;;;0.50;;
19735;SDS011;32064;49.310;8.646;2023-04-15T13:49:13;0.70;;;0.65;;
19735;SDS011;32064;49.310;8.646;2023-04-15T13:51:39;0.30;;;0.30;;
19735;SDS011;32064;49.310;8.646;2023-04-15T13:54:04;0.50;;;0.50;;
19735;SDS011;32064;49.310;8.646;2023-04-15T13:56:30;0.80;;;0.60;;
19735;SDS011;32064;49.310;8.646;2023-04-15T13:58:55;1.75;;;0.57;;
19735;SDS011;32064;49.310;8.646;2023-04-15T14:01:23;0.32;;;0.32;;
19735;SDS011;32064;49.310;8.646;2023-04-15T14:03:49;0.43;;;0.43;;
19735;SDS011;32064;49.310;8.646;2023-04-15T14:06:14;1.35;;;0.50;;
19735;SDS011;32064;49.310;8.646;2023-04-15T14:08:40;2.83;;;0.75;;
19735;SDS011;32064;49.310;8.646;2023-04-15T14:11:05;1.33;;;0.60;;
19735;SDS011;32064;49.310;8.646;2023-04-15T14:13:31;0.90;;;0.90;;
19735;SDS011;32064;49.310;8.646;2023-04-15T14:15:56;0.85;;;0.82;;
19735;SDS011;32064;49.310;8.646;2023-04-15T14:18:21;1.83;;;0.82;;
19735;SDS011;32064;49.310;8.646;2023-04-15T14:20:47;0.80;;;0.55;;
19735;SDS011;32064;49.310;8.646;2023-04-15T14:23:12;2.60;;;0.90;;
19735;SDS011;32064;49.310;8.646;2023-04-15T14:25:38;1.63;;;0.75;;
19735;SDS011;32064;49.310;8.646;2023-04-15T14:28:03;1.35;;;0.75;;
19735;SDS011;32064;49.310;8.646;2023-04-15T14:30:29;0.73;;;0.63;;
19735;SDS011;32064;49.310;8.646;2023-04-15T14:32:54;1.10;;;0.80;;
19735;SDS011;32064;49.310;8.646;2023-04-15T14:35:20;0.70;;;0.60;;
19735;SDS011;32064;49.310;8.646;2023-04-15T14:37:45;0.70;;;0.57;;
19735;SDS011;32064;49.310;8.646;2023-04-15T14:40:11;1.33;;;0.63;;
19735;SDS011;32064;49.310;8.646;2023-04-15T14:42:36;0.82;;;0.60;;
19735;SDS011;32064;49.310;8.646;2023-04-15T14:45:02;2.03;;;0.82;;
19735;SDS011;32064;49.310;8.646;2023-04-15T14:47:27;0.50;;;0.50;;
19735;SDS011;32064;49.310;8.646;2023-04-15T14:49:52;2.05;;;0.73;;
19735;SDS011;32064;49.310;8.646;2023-04-15T14:52:18;0.70;;;0.60;;
19735;SDS011;32064;49.310;8.646;2023-04-15T14:54:43;1.55;;;1.00;;
19735;SDS011;32064;49.310;8.646;2023-04-15T14:57:08;1.33;;;0.80;;
19735;SDS011;32064;49.310;8.646;2023-04-15T14:59:34;1.00;;;0.70;;